Terminal Aerodrome Forecast
Issued by NWS Sterling, VA

Home | Current Version | Previous Version | Text Only | Print | Product List | Glossary On
Versions: 1 2 3 4 5 6 7 8 9 10 11 12 13 14 15 16 17 18 19 20 21 22 23 24
000
FTUS41 KLWX 031133
TAFMRB
TAF
KMRB 031133Z 0312/0412 00000KT 1/4SM FG VV002
     FM031300 00000KT 3SM BR BKN140
     FM031500 VRB03KT P6SM BKN120
     FM032100 15009KT P6SM OVC040
     FM032200 15007KT 6SM -SHRA OVC040
     FM040700 13004KT 6SM -SHRA OVC001=

USA.gov is the U.S. government's official web portal to all federal, state and local government web resources and services.